Time;durP1;ratioP1;P1;durP2;ratioP2;P2;SDS_P1;SDS_P2;PMS_P1;PMS_P2;Temp;Humidity;BMP_temperature;BMP_pressure;BME280_temperature;BME280_humidity;BME280_pressure;Samples;Min_cycle;Max_cycle;Signal;HPM_P1;HPM_P2
2022/03/23 00:00:46;;;;;;;27.65;9.82;;;;;;;;;;4978576;28;20034;-91
2022/03/23 00:03:13;;;;;;;19.98;8.20;;;;;;;;;;4979253;28;20027;-91
2022/03/23 00:05:41;;;;;;;18.33;8.65;;;;;;;;;;4980512;28;20094;-91
2022/03/23 00:08:08;;;;;;;17.20;8.10;;;;;;;;;;4978331;28;20078;-90
2022/03/23 00:10:35;;;;;;;19.70;8.02;;;;;;;;;;4978049;28;20122;-90
2022/03/23 00:13:01;;;;;;;20.50;8.23;;;;;;;;;;4977429;28;20038;-93
2022/03/23 00:15:33;;;;;;;16.42;7.53;;;;;;;;;;4978907;28;20031;-91
2022/03/23 00:17:59;;;;;;;18.50;7.32;;;;;;;;;;4978144;28;20026;-93
2022/03/23 00:20:29;;;;;;;17.42;7.35;;;;;;;;;;4979213;28;20027;-91
2022/03/23 00:22:55;;;;;;;15.77;7.63;;;;;;;;;;4978076;28;20023;-91
2022/03/23 00:25:21;;;;;;;19.83;7.65;;;;;;;;;;4978165;28;20165;-91
2022/03/23 00:27:47;;;;;;;18.75;7.88;;;;;;;;;;4978062;28;20022;-91
2022/03/23 00:30:17;;;;;;;15.15;6.95;;;;;;;;;;4979630;28;20471;-92
2022/03/23 00:32:46;;;;;;;20.38;7.95;;;;;;;;;;4978339;28;20558;-91
2022/03/23 00:35:16;;;;;;;19.50;7.55;;;;;;;;;;4977406;28;20062;-90
2022/03/23 00:37:46;;;;;;;20.65;7.28;;;;;;;;;;4977415;28;20027;-91
2022/03/23 00:40:12;;;;;;;17.80;7.65;;;;;;;;;;4977199;28;20065;-91
2022/03/23 00:42:44;;;;;;;16.90;7.20;;;;;;;;;;4977124;28;20491;-92
2022/03/23 00:45:14;;;;;;;20.33;7.78;;;;;;;;;;4977453;28;20582;-92
2022/03/23 00:47:41;;;;;;;26.35;8.02;;;;;;;;;;4977930;28;20089;-92
2022/03/23 00:50:07;;;;;;;17.50;8.27;;;;;;;;;;4977082;28;20054;-91
2022/03/23 00:52:36;;;;;;;19.27;8.48;;;;;;;;;;4977001;28;20035;-91
2022/03/23 00:55:08;;;;;;;19.13;7.90;;;;;;;;;;4977373;28;20030;-91
2022/03/23 00:57:34;;;;;;;19.90;7.55;;;;;;;;;;4977326;28;20027;-89
2022/03/23 01:00:00;;;;;;;17.85;7.78;;;;;;;;;;4976874;28;20035;-90
2022/03/23 01:02:26;;;;;;;15.98;7.28;;;;;;;;;;4976793;28;20451;-89
2022/03/23 01:04:53;;;;;;;21.17;7.43;;;;;;;;;;4977296;28;20078;-91
2022/03/23 01:07:19;;;;;;;13.70;6.82;;;;;;;;;;4977132;28;20105;-89
2022/03/23 01:09:45;;;;;;;17.75;7.15;;;;;;;;;;4977277;28;20031;-89
2022/03/23 01:12:12;;;;;;;19.50;8.27;;;;;;;;;;4976846;28;20031;-90
2022/03/23 01:14:41;;;;;;;15.15;7.68;;;;;;;;;;4976668;28;20039;-91
2022/03/23 01:17:08;;;;;;;15.27;7.38;;;;;;;;;;4976989;28;20040;-89
2022/03/23 01:19:34;;;;;;;21.00;7.78;;;;;;;;;;4978956;28;20126;-90
2022/03/23 01:22:00;;;;;;;19.27;7.90;;;;;;;;;;4999211;28;20042;-90
2022/03/23 01:24:26;;;;;;;18.23;7.97;;;;;;;;;;5033654;23;20037;-90
2022/03/23 01:26:52;;;;;;;19.08;7.95;;;;;;;;;;4965841;29;20031;-91
2022/03/23 01:29:19;;;;;;;18.80;7.28;;;;;;;;;;4965699;29;20027;-90
2022/03/23 01:31:46;;;;;;;18.02;7.97;;;;;;;;;;4958991;29;20031;-90
2022/03/23 01:34:16;;;;;;;17.77;7.88;;;;;;;;;;4956864;29;20046;-90
2022/03/23 01:36:45;;;;;;;19.10;8.20;;;;;;;;;;4957763;28;20031;-90
2022/03/23 01:39:12;;;;;;;21.58;8.63;;;;;;;;;;4957173;29;20031;-91
2022/03/23 01:41:42;;;;;;;23.15;7.40;;;;;;;;;;4957528;29;20038;-91
2022/03/23 01:44:15;;;;;;;21.48;7.97;;;;;;;;;;4957463;29;20019;-90
2022/03/23 01:46:43;;;;;;;;;;;;;;;;;;4956753;29;20051;-90
2022/03/23 01:49:10;;;;;;;15.85;6.97;;;;;;;;;;4956905;28;19934;-89
2022/03/23 01:51:36;;;;;;;16.70;7.13;;;;;;;;;;4957090;29;20055;-90
2022/03/23 01:54:02;;;;;;;18.35;7.63;;;;;;;;;;4961593;29;20035;-90
2022/03/23 01:56:31;;;;;;;19.40;8.10;;;;;;;;;;4964469;29;20116;-91
2022/03/23 01:59:00;;;;;;;16.63;7.05;;;;;;;;;;4956825;29;20122;-91
2022/03/23 02:01:26;;;;;;;17.75;7.07;;;;;;;;;;4956304;29;20023;-91
2022/03/23 02:03:53;;;;;;;16.83;7.53;;;;;;;;;;4956284;28;20039;-92
2022/03/23 02:06:20;;;;;;;15.65;6.85;;;;;;;;;;4957154;29;20023;-90
2022/03/23 02:08:47;;;;;;;21.35;7.50;;;;;;;;;;4958113;29;20027;-91
2022/03/23 02:11:13;;;;;;;23.77;7.82;;;;;;;;;;4960264;29;20042;-90
2022/03/23 02:14:13;;;;;;;18.90;7.63;;;;;;;;;;4978009;23;20145;-89
2022/03/23 02:16:43;;;;;;;17.90;7.22;;;;;;;;;;4956462;29;20498;-90
2022/03/23 02:19:10;;;;;;;15.82;7.25;;;;;;;;;;4956194;29;20026;-94
2022/03/23 02:21:37;;;;;;;18.92;7.30;;;;;;;;;;4956149;29;20023;-89
2022/03/23 02:24:04;;;;;;;17.67;7.05;;;;;;;;;;4956268;29;20078;-91
2022/03/23 02:26:31;;;;;;;19.23;7.80;;;;;;;;;;4955896;29;20035;-90
2022/03/23 02:29:01;;;;;;;19.08;7.72;;;;;;;;;;4956092;28;20028;-91
2022/03/23 02:31:27;;;;;;;23.67;8.32;;;;;;;;;;4956614;29;20050;-89
2022/03/23 02:33:54;;;;;;;19.77;8.18;;;;;;;;;;4955949;29;20047;-91
2022/03/23 02:36:21;;;;;;;19.92;8.38;;;;;;;;;;4955649;29;20027;-91
2022/03/23 02:38:47;;;;;;;17.27;7.68;;;;;;;;;;4956201;29;20082;-92
2022/03/23 02:41:14;;;;;;;20.00;8.40;;;;;;;;;;4956394;29;20027;-90
2022/03/23 02:43:43;;;;;;;18.63;8.27;;;;;;;;;;4956429;29;20115;-91
2022/03/23 02:46:19;;;;;;;20.50;8.75;;;;;;;;;;4955868;29;20035;-91
2022/03/23 02:48:47;;;;;;;18.75;8.45;;;;;;;;;;4963029;29;20027;-91
2022/03/23 02:51:14;;;;;;;21.73;8.38;;;;;;;;;;4957266;29;20027;-91
2022/03/23 03:02:35;;;;;;;23.35;8.93;;;;;;;;;;4956975;29;20097;-92
2022/03/23 03:05:01;;;;;;;26.83;9.20;;;;;;;;;;4956345;29;20485;-91
2022/03/23 03:07:28;;;;;;;22.48;9.55;;;;;;;;;;4957293;28;20058;-91
2022/03/23 03:09:54;;;;;;;24.48;10.27;;;;;;;;;;4955873;29;20039;-91
2022/03/23 03:12:20;;;;;;;18.45;9.05;;;;;;;;;;4956196;28;20023;-91
2022/03/23 03:14:49;;;;;;;24.90;10.13;;;;;;;;;;4955473;28;20055;-92
2022/03/23 03:17:17;;;;;;;25.27;9.07;;;;;;;;;;4959862;28;20408;-92
2022/03/23 03:19:46;;;;;;;22.05;8.95;;;;;;;;;;4960094;29;20027;-91
2022/03/23 03:22:12;;;;;;;23.50;9.93;;;;;;;;;;4965191;29;20023;-92
2022/03/23 03:24:41;;;;;;;23.25;9.88;;;;;;;;;;4960994;29;20032;-91
2022/03/23 03:27:09;;;;;;;24.60;9.52;;;;;;;;;;4959305;29;20090;-91
2022/03/23 03:29:38;;;;;;;19.08;9.25;;;;;;;;;;4959613;29;20031;-92
2022/03/23 03:32:04;;;;;;;21.65;9.00;;;;;;;;;;4959054;29;20110;-89
2022/03/23 03:34:30;;;;;;;21.75;8.57;;;;;;;;;;4959192;29;20069;-91
2022/03/23 03:37:00;;;;;;;17.77;8.10;;;;;;;;;;4959053;29;20054;-92
2022/03/23 03:39:26;;;;;;;21.33;8.25;;;;;;;;;;4959095;29;20028;-92
2022/03/23 03:41:55;;;;;;;22.65;7.78;;;;;;;;;;4959223;29;20034;-91
2022/03/23 03:44:21;;;;;;;18.73;7.93;;;;;;;;;;4958933;29;20055;-92
2022/03/23 03:46:50;;;;;;;19.92;7.65;;;;;;;;;;4960313;29;20024;-92
2022/03/23 03:49:18;;;;;;;17.23;7.15;;;;;;;;;;4960444;29;20125;-92
2022/03/23 03:51:44;;;;;;;17.02;7.35;;;;;;;;;;4959135;29;20051;-91
2022/03/23 03:54:11;;;;;;;16.33;7.97;;;;;;;;;;4959721;29;20484;-91
2022/03/23 03:56:37;;;;;;;24.50;7.13;;;;;;;;;;4959023;29;20024;-92
2022/03/23 03:59:03;;;;;;;19.50;6.60;;;;;;;;;;4959062;29;20035;-91
2022/03/23 04:01:29;;;;;;;19.38;7.82;;;;;;;;;;4960563;29;20078;-91
2022/03/23 04:03:59;;;;;;;18.92;7.90;;;;;;;;;;4959672;29;20031;-90
2022/03/23 04:06:31;;;;;;;14.70;7.07;;;;;;;;;;4943006;29;20032;-91
2022/03/23 04:15:15;;;;;;;23.55;7.60;;;;;;;;;;4951622;28;20047;-91
2022/03/23 04:17:42;;;;;;;26.90;7.88;;;;;;;;;;4959528;29;20035;-90
2022/03/23 04:20:11;;;;;;;18.50;7.85;;;;;;;;;;4962474;29;20034;-90
2022/03/23 04:22:41;;;;;;;18.30;8.27;;;;;;;;;;4959509;29;20023;-91
2022/03/23 04:25:11;;;;;;;19.63;8.35;;;;;;;;;;4958334;29;20023;-91
2022/03/23 04:27:54;;;;;;;20.50;8.43;;;;;;;;;;4958307;28;20147;-89
2022/03/23 04:30:57;;;;;;;18.00;7.88;;;;;;;;;;4964828;29;20026;-90
2022/03/23 04:39:31;;;;;;;16.27;6.82;;;;;;;;;;4961594;29;20054;-88
2022/03/23 04:50:40;;;;;;;18.83;8.25;;;;;;;;;;5732955;23;20383;-90
2022/03/23 04:55:54;;;;;;;19.98;8.15;;;;;;;;;;4975325;23;20062;-92
2022/03/23 04:58:20;;;;;;;26.95;8.05;;;;;;;;;;4957191;29;20500;-93
2022/03/23 05:01:06;;;;;;;17.73;7.70;;;;;;;;;;4958378;29;20127;-91
2022/03/23 05:03:34;;;;;;;25.83;9.25;;;;;;;;;;4957425;29;20031;-91
2022/03/23 05:06:12;;;;;;;18.17;8.77;;;;;;;;;;4957592;29;20082;-89
2022/03/23 05:08:41;;;;;;;20.45;8.75;;;;;;;;;;4957459;29;20031;-92
2022/03/23 05:11:13;;;;;;;27.08;9.48;;;;;;;;;;4958030;29;20102;-90
2022/03/23 05:13:40;;;;;;;20.80;8.70;;;;;;;;;;4957559;29;20130;-89
2022/03/23 05:16:13;;;;;;;20.33;8.25;;;;;;;;;;4957631;29;20547;-89
2022/03/23 05:18:42;;;;;;;23.92;8.80;;;;;;;;;;4973468;28;20034;-88
2022/03/23 05:21:12;;;;;;;24.30;8.85;;;;;;;;;;4979288;28;20035;-90
2022/03/23 05:23:41;;;;;;;20.23;8.60;;;;;;;;;;4963074;29;20023;-92
2022/03/23 05:26:17;;;;;;;19.30;8.50;;;;;;;;;;4961717;29;20034;-91
2022/03/23 05:28:43;;;;;;;27.40;9.50;;;;;;;;;;4959133;29;20039;-89
2022/03/23 05:31:14;;;;;;;19.08;8.68;;;;;;;;;;4957355;29;20027;-90
2022/03/23 05:33:40;;;;;;;20.50;8.63;;;;;;;;;;4956735;29;20047;-93
2022/03/23 05:36:09;;;;;;;31.02;9.55;;;;;;;;;;4956794;29;20023;-91
2022/03/23 05:38:38;;;;;;;21.10;9.60;;;;;;;;;;4955974;28;20082;-89
2022/03/23 05:41:07;;;;;;;20.90;9.82;;;;;;;;;;4956586;29;20049;-90
2022/03/23 05:43:33;;;;;;;20.02;8.93;;;;;;;;;;4958244;29;20031;-90
2022/03/23 05:46:02;;;;;;;22.38;9.35;;;;;;;;;;4958862;29;20062;-91
2022/03/23 05:48:29;;;;;;;24.30;8.38;;;;;;;;;;4959670;29;20035;-89
2022/03/23 05:50:55;;;;;;;22.42;9.35;;;;;;;;;;4958271;29;20106;-90
2022/03/23 05:53:24;;;;;;;18.85;9.90;;;;;;;;;;4956143;29;20039;-90
2022/03/23 05:55:53;;;;;;;19.27;10.02;;;;;;;;;;4955184;29;20083;-91
2022/03/23 05:58:22;;;;;;;24.73;11.45;;;;;;;;;;4956346;28;20113;-91
2022/03/23 06:00:49;;;;;;;17.77;9.35;;;;;;;;;;4942067;29;20019;-93
2022/03/23 06:03:15;;;;;;;22.42;9.43;;;;;;;;;;4957860;29;20028;-90
2022/03/23 06:06:00;;;;;;;18.95;8.80;;;;;;;;;;4957981;29;20074;-91
2022/03/23 06:11:30;;;;;;;13.93;5.70;;;;;;;;;;4958206;29;20046;-90
2022/03/23 06:13:57;;;;;;;13.88;5.28;;;;;;;;;;4955218;28;20126;-91
2022/03/23 06:16:29;;;;;;;17.52;6.45;;;;;;;;;;4956338;29;20024;-93
2022/03/23 06:18:55;;;;;;;16.98;7.55;;;;;;;;;;4954834;29;20377;-89
2022/03/23 06:21:22;;;;;;;30.58;12.27;;;;;;;;;;4955674;28;20023;-90
2022/03/23 06:23:48;;;;;;;34.95;13.18;;;;;;;;;;4955144;28;20473;-89
2022/03/23 06:26:14;;;;;;;27.58;11.70;;;;;;;;;;4955489;28;20024;-91
2022/03/23 06:28:40;;;;;;;23.73;10.88;;;;;;;;;;4972779;23;20017;-88
2022/03/23 06:31:07;;;;;;;18.58;8.65;;;;;;;;;;4955709;28;20031;-88
2022/03/23 06:33:36;;;;;;;16.33;7.55;;;;;;;;;;4955486;28;20047;-89
2022/03/23 06:36:03;;;;;;;21.25;7.80;;;;;;;;;;4955640;28;20034;-88
2022/03/23 06:38:51;;;;;;;23.90;7.90;;;;;;;;;;4956613;28;20027;-89
2022/03/23 06:41:20;;;;;;;22.98;8.98;;;;;;;;;;4956876;28;20031;-91
2022/03/23 06:43:49;;;;;;;20.45;9.40;;;;;;;;;;4955776;28;20085;-89
2022/03/23 06:46:18;;;;;;;21.05;8.63;;;;;;;;;;4956705;28;20385;-96
2022/03/23 06:48:46;;;;;;;16.15;8.20;;;;;;;;;;4956171;28;20074;-92
2022/03/23 06:51:22;;;;;;;16.02;8.35;;;;;;;;;;4961517;28;20027;-91
2022/03/23 06:54:00;;;;;;;14.40;7.72;;;;;;;;;;4961911;28;20043;-91
2022/03/23 06:56:26;;;;;;;17.70;7.75;;;;;;;;;;4952057;28;20114;-95
2022/03/23 06:59:04;;;;;;;17.48;8.43;;;;;;;;;;4944193;29;20397;-92
2022/03/23 07:01:43;;;;;;;14.45;7.93;;;;;;;;;;4949074;28;20032;-95
2022/03/23 07:04:24;;;;;;;15.40;8.13;;;;;;;;;;4955551;28;20031;-92
2022/03/23 07:06:54;;;;;;;14.30;7.97;;;;;;;;;;4972742;28;20009;-90
2022/03/23 07:09:38;;;;;;;18.30;8.05;;;;;;;;;;4979405;23;20100;-89
2022/03/23 07:12:23;;;;;;;17.63;7.80;;;;;;;;;;4982581;28;20086;-92
2022/03/23 07:14:50;;;;;;;14.40;7.13;;;;;;;;;;4961792;29;20031;-93
2022/03/23 07:17:19;;;;;;;13.50;7.38;;;;;;;;;;4960893;28;20020;-89
2022/03/23 07:20:03;;;;;;;13.93;8.23;;;;;;;;;;4969896;28;20457;-90
2022/03/23 07:22:30;;;;;;;15.38;8.13;;;;;;;;;;4958522;28;20035;-88
2022/03/23 07:24:58;;;;;;;19.55;8.82;;;;;;;;;;4959057;28;20500;-88
2022/03/23 07:27:27;;;;;;;15.02;8.88;;;;;;;;;;4969153;28;20388;-90
2022/03/23 07:30:01;;;;;;;14.30;8.05;;;;;;;;;;4967373;28;20126;-90
2022/03/23 07:32:30;;;;;;;9.68;5.90;;;;;;;;;;4961765;28;20118;-91
2022/03/23 07:34:56;;;;;;;10.35;5.30;;;;;;;;;;4960199;28;20039;-90
2022/03/23 07:37:25;;;;;;;11.30;6.25;;;;;;;;;;4959870;28;20182;-90
2022/03/23 07:39:56;;;;;;;11.95;5.97;;;;;;;;;;4960998;28;20031;-91
2022/03/23 07:42:22;;;;;;;11.25;5.63;;;;;;;;;;4959003;28;20039;-92
2022/03/23 07:44:48;;;;;;;13.68;5.00;;;;;;;;;;4959554;28;20107;-93
2022/03/23 07:47:17;;;;;;;8.85;4.45;;;;;;;;;;4959673;28;20365;-93
2022/03/23 07:49:46;;;;;;;7.70;3.90;;;;;;;;;;4960371;28;20066;-91
2022/03/23 07:52:23;;;;;;;7.95;3.53;;;;;;;;;;4963362;28;20126;-92
2022/03/23 07:54:52;;;;;;;9.57;4.35;;;;;;;;;;4968799;28;20035;-92
2022/03/23 07:57:24;;;;;;;7.22;3.70;;;;;;;;;;4960272;28;20027;-95
2022/03/23 07:59:51;;;;;;;8.05;4.13;;;;;;;;;;4962449;28;20031;-91
2022/03/23 08:02:17;;;;;;;7.50;3.92;;;;;;;;;;4965222;28;20118;-93
2022/03/23 08:04:46;;;;;;;7.57;3.85;;;;;;;;;;4958452;28;20071;-90
2022/03/23 08:07:15;;;;;;;7.78;4.20;;;;;;;;;;4959790;28;20105;-92
2022/03/23 08:12:59;;;;;;;8.95;4.25;;;;;;;;;;4960880;29;20049;-89
2022/03/23 08:15:37;;;;;;;9.18;4.55;;;;;;;;;;4958556;29;20070;-89
2022/03/23 08:18:04;;;;;;;10.45;4.82;;;;;;;;;;4960157;28;20027;-90
2022/03/23 08:20:45;;;;;;;9.48;4.78;;;;;;;;;;4959500;28;20054;-86
2022/03/23 08:23:21;;;;;;;7.97;4.22;;;;;;;;;;4975144;28;20369;-88
2022/03/23 08:25:56;;;;;;;8.40;4.03;;;;;;;;;;4965256;28;20056;-88
2022/03/23 08:28:25;;;;;;;8.73;4.10;;;;;;;;;;4976511;28;20061;-91
2022/03/23 08:30:51;;;;;;;11.90;4.30;;;;;;;;;;4977818;28;20037;-87
2022/03/23 08:33:19;;;;;;;10.80;5.40;;;;;;;;;;4978368;28;20034;-91
2022/03/23 08:35:46;;;;;;;11.20;5.28;;;;;;;;;;4978469;28;20031;-88
2022/03/23 08:38:12;;;;;;;10.93;5.10;;;;;;;;;;4978746;28;20023;-92
2022/03/23 08:40:42;;;;;;;10.25;4.85;;;;;;;;;;4996952;28;20034;-87
2022/03/23 08:43:11;;;;;;;10.57;5.22;;;;;;;;;;4996504;28;20085;-92
2022/03/23 08:45:37;;;;;;;7.30;4.28;;;;;;;;;;4980365;28;20027;-90
2022/03/23 08:48:03;;;;;;;10.45;5.00;;;;;;;;;;4980273;28;20035;-90
2022/03/23 08:50:30;;;;;;;10.02;4.50;;;;;;;;;;4979091;28;20125;-89
2022/03/23 08:52:56;;;;;;;18.20;5.00;;;;;;;;;;4966751;28;20599;-90
2022/03/23 08:55:25;;;;;;;11.93;4.90;;;;;;;;;;4958342;29;20031;-92
2022/03/23 08:57:51;;;;;;;10.13;4.75;;;;;;;;;;4956925;29;20122;-88
2022/03/23 09:00:18;;;;;;;8.48;4.45;;;;;;;;;;4958316;29;20054;-89
2022/03/23 09:02:44;;;;;;;8.77;4.40;;;;;;;;;;4958632;29;20054;-89
2022/03/23 09:05:11;;;;;;;10.70;4.88;;;;;;;;;;4957982;29;20030;-89
2022/03/23 09:07:38;;;;;;;9.20;4.53;;;;;;;;;;4957503;29;20087;-93
2022/03/23 09:10:13;;;;;;;9.25;4.88;;;;;;;;;;4958732;28;20047;-94
2022/03/23 09:12:40;;;;;;;12.77;5.35;;;;;;;;;;4957134;28;20082;-90
2022/03/23 09:15:08;;;;;;;12.32;5.22;;;;;;;;;;4957710;29;20038;-95
2022/03/23 09:17:34;;;;;;;10.45;5.22;;;;;;;;;;4956912;29;20043;-93
2022/03/23 09:20:04;;;;;;;11.70;5.60;;;;;;;;;;4957806;29;20038;-95
2022/03/23 09:22:34;;;;;;;8.93;5.95;;;;;;;;;;4961531;29;20027;-90
2022/03/23 09:25:02;;;;;;;11.82;5.80;;;;;;;;;;4958236;29;20027;-88
2022/03/23 09:27:28;;;;;;;8.95;5.55;;;;;;;;;;4962501;28;20081;-92
2022/03/23 09:29:55;;;;;;;11.35;6.05;;;;;;;;;;4966581;28;20420;-93
2022/03/23 09:35:28;;;;;;;9.73;6.07;;;;;;;;;;4996432;23;20405;-91
2022/03/23 09:40:59;;;;;;;10.80;5.65;;;;;;;;;;4977655;23;20062;-88
2022/03/23 09:43:25;;;;;;;11.13;5.10;;;;;;;;;;4945374;29;20098;-87
2022/03/23 09:45:52;;;;;;;10.13;5.15;;;;;;;;;;4949520;29;20023;-91
2022/03/23 09:48:24;;;;;;;11.20;5.45;;;;;;;;;;4926431;29;20028;-94
2022/03/23 09:50:55;;;;;;;11.73;5.65;;;;;;;;;;4939275;29;20032;-92
2022/03/23 09:53:23;;;;;;;9.02;5.30;;;;;;;;;;4949867;29;20038;-94
2022/03/23 09:55:51;;;;;;;8.60;5.18;;;;;;;;;;4942216;29;20048;-94
2022/03/23 09:58:18;;;;;;;17.17;5.68;;;;;;;;;;4945717;29;20034;-92
2022/03/23 10:00:44;;;;;;;12.15;5.60;;;;;;;;;;4957203;28;20023;-88
2022/03/23 10:03:29;;;;;;;9.63;5.45;;;;;;;;;;4949828;29;20047;-94
2022/03/23 10:06:08;;;;;;;9.07;5.45;;;;;;;;;;4957135;29;20060;-88
2022/03/23 10:08:53;;;;;;;11.32;5.35;;;;;;;;;;4948328;29;20019;-87
2022/03/23 10:11:38;;;;;;;9.98;5.07;;;;;;;;;;4937030;29;20139;-90
2022/03/23 10:14:11;;;;;;;13.02;5.05;;;;;;;;;;4936558;29;20035;-84
2022/03/23 10:16:53;;;;;;;14.65;5.65;;;;;;;;;;4941186;29;20028;-83
2022/03/23 10:19:20;;;;;;;9.98;5.22;;;;;;;;;;4957347;29;20031;-89
2022/03/23 10:21:46;;;;;;;10.32;5.68;;;;;;;;;;4955391;29;20074;-85
2022/03/23 10:24:12;;;;;;;17.73;4.85;;;;;;;;;;4959174;29;20027;-92
2022/03/23 10:26:42;;;;;;;11.60;5.53;;;;;;;;;;4957260;29;20054;-93
2022/03/23 10:29:25;;;;;;;10.48;4.82;;;;;;;;;;4954917;29;20035;-92
2022/03/23 10:32:01;;;;;;;10.32;5.03;;;;;;;;;;4939958;29;20027;-91
2022/03/23 10:34:52;;;;;;;8.95;5.15;;;;;;;;;;4937978;29;20555;-92
2022/03/23 10:37:26;;;;;;;9.10;5.43;;;;;;;;;;4940942;29;20039;-92
2022/03/23 10:40:07;;;;;;;11.45;4.82;;;;;;;;;;4944075;29;20063;-89
2022/03/23 10:42:35;;;;;;;7.55;4.50;;;;;;;;;;4943585;29;20028;-88
2022/03/23 10:45:16;;;;;;;10.02;4.72;;;;;;;;;;4955696;29;20031;-89
2022/03/23 10:48:20;;;;;;;11.68;4.95;;;;;;;;;;4969115;29;20059;-93
2022/03/23 10:56:53;;;;;;;7.65;4.40;;;;;;;;;;4961499;29;20039;-88
2022/03/23 10:59:22;;;;;;;12.52;5.18;;;;;;;;;;4929934;29;20515;-89
2022/03/23 11:01:58;;;;;;;10.07;4.97;;;;;;;;;;4927170;29;20031;-91
2022/03/23 11:04:28;;;;;;;14.40;4.72;;;;;;;;;;4936119;29;20024;-94
2022/03/23 11:07:04;;;;;;;10.30;4.97;;;;;;;;;;4934576;29;20047;-96
2022/03/23 11:18:31;;;;;;;6.65;4.03;;;;;;;;;;4977352;28;20121;-92
2022/03/23 11:24:23;;;;;;;14.00;4.82;;;;;;;;;;4980148;28;20034;-89
2022/03/23 11:27:01;;;;;;;7.43;4.15;;;;;;;;;;4978866;28;20117;-89
2022/03/23 11:29:32;;;;;;;9.82;4.90;;;;;;;;;;4975077;28;20046;-93
2022/03/23 11:32:08;;;;;;;5.95;4.00;;;;;;;;;;4975192;28;20031;-88
2022/03/23 11:34:36;;;;;;;7.30;3.85;;;;;;;;;;4968354;28;20126;-90
2022/03/23 11:37:16;;;;;;;6.60;3.67;;;;;;;;;;4977595;28;20170;-93
2022/03/23 11:43:01;;;;;;;8.68;4.60;;;;;;;;;;4981769;28;20039;-93
2022/03/23 11:45:31;;;;;;;11.25;4.25;;;;;;;;;;4977551;28;20125;-89
2022/03/23 11:48:02;;;;;;;9.00;4.43;;;;;;;;;;4981469;28;20030;-89
2022/03/23 11:50:34;;;;;;;7.13;4.05;;;;;;;;;;4979347;28;20022;-87
2022/03/23 11:53:18;;;;;;;8.48;4.00;;;;;;;;;;4978403;28;20038;-90
2022/03/23 11:55:51;;;;;;;6.88;3.92;;;;;;;;;;4977702;28;20118;-90
2022/03/23 11:58:21;;;;;;;10.50;4.40;;;;;;;;;;4980020;28;20031;-89
2022/03/23 12:01:10;;;;;;;9.70;4.20;;;;;;;;;;4978620;28;20026;-92
2022/03/23 12:09:34;;;;;;;8.45;3.90;;;;;;;;;;5844482;23;20050;-90
2022/03/23 12:12:30;;;;;;;6.88;3.58;;;;;;;;;;5011265;28;20084;-91
2022/03/23 12:15:16;;;;;;;10.68;3.28;;;;;;;;;;5010634;28;20067;-92
2022/03/23 12:18:13;;;;;;;;;;;;;;;;;;;;;
2022/03/23 12:23:51;;;;;;;9.13;2.85;;;;;;;;;;4975648;28;20049;-94
2022/03/23 12:26:38;;;;;;;7.72;2.70;;;;;;;;;;5000893;28;20030;-93
2022/03/23 12:29:47;;;;;;;9.02;3.40;;;;;;;;;;5016652;28;20024;-94
2022/03/23 12:32:24;;;;;;;11.68;4.15;;;;;;;;;;4941172;28;20062;-96
2022/03/23 12:34:56;;;;;;;9.70;3.10;;;;;;;;;;4998987;28;20038;-94
2022/03/23 12:37:22;;;;;;;10.57;3.30;;;;;;;;;;4997753;28;20019;-92
2022/03/23 12:40:08;;;;;;;9.73;4.00;;;;;;;;;;4997888;28;20043;-90
2022/03/23 12:42:34;;;;;;;8.57;3.75;;;;;;;;;;4997303;28;20037;-89
2022/03/23 12:45:30;;;;;;;8.32;3.33;;;;;;;;;;4998586;28;20093;-92
2022/03/23 12:47:56;;;;;;;14.45;3.70;;;;;;;;;;5004741;28;20039;-93
2022/03/23 12:59:26;;;;;;;8.88;3.17;;;;;;;;;;4998862;28;20057;-90
2022/03/23 13:02:31;;;;;;;;;;;;;;;;;;;;;
2022/03/23 13:08:30;;;;;;;6.95;3.35;;;;;;;;;;5016114;28;20081;-95
2022/03/23 13:11:06;;;;;;;9.82;3.38;;;;;;;;;;4991643;28;20117;-92
2022/03/23 13:13:37;;;;;;;11.85;3.92;;;;;;;;;;4997051;28;20542;-91
2022/03/23 13:16:03;;;;;;;8.27;3.60;;;;;;;;;;4997915;28;20027;-91
2022/03/23 13:18:31;;;;;;;8.68;3.40;;;;;;;;;;5001463;28;20034;-92
2022/03/23 13:20:59;;;;;;;6.20;3.30;;;;;;;;;;5002000;28;20007;-91
2022/03/23 13:23:26;;;;;;;7.95;3.60;;;;;;;;;;5000213;28;20030;-95
2022/03/23 13:26:12;;;;;;;7.82;3.72;;;;;;;;;;4998969;28;20023;-91
2022/03/23 13:28:40;;;;;;;12.20;3.35;;;;;;;;;;4999567;28;20030;-95
2022/03/23 13:31:13;;;;;;;6.07;3.22;;;;;;;;;;5014021;28;20014;-94
2022/03/23 13:33:41;;;;;;;7.45;3.38;;;;;;;;;;5004410;28;20140;-95
2022/03/23 13:36:11;;;;;;;6.45;3.28;;;;;;;;;;5000795;28;20050;-95
2022/03/23 13:38:38;;;;;;;8.80;3.20;;;;;;;;;;4999677;28;20395;-95
2022/03/23 13:43:55;;;;;;;4.70;2.45;;;;;;;;;;5005165;28;20049;-94
2022/03/23 13:46:29;;;;;;;6.35;2.80;;;;;;;;;;5003799;28;20031;-94
2022/03/23 13:49:10;;;;;;;9.60;2.92;;;;;;;;;;5002759;28;20034;-95
2022/03/23 13:52:08;;;;;;;9.95;3.17;;;;;;;;;;5003063;28;20006;-96
2022/03/23 13:54:58;;;;;;;6.10;2.72;;;;;;;;;;5000183;28;20125;-94
2022/03/23 13:57:24;;;;;;;7.35;3.28;;;;;;;;;;5001294;28;20026;-91
2022/03/23 13:59:51;;;;;;;11.63;2.22;;;;;;;;;;5014994;28;20053;-91
2022/03/23 14:02:17;;;;;;;8.40;2.65;;;;;;;;;;5005201;28;20107;-92
2022/03/23 14:04:44;;;;;;;9.65;3.30;;;;;;;;;;4996178;28;20026;-93
2022/03/23 14:07:16;;;;;;;6.30;2.90;;;;;;;;;;4995941;28;20034;-90
2022/03/23 14:09:42;;;;;;;5.07;3.00;;;;;;;;;;4997352;28;20114;-88
2022/03/23 14:12:39;;;;;;;5.75;2.97;;;;;;;;;;5002573;28;20026;-89
2022/03/23 14:22:56;;;;;;;13.10;3.13;;;;;;;;;;5023423;28;20050;-95
2022/03/23 14:25:31;;;;;;;6.38;3.00;;;;;;;;;;4999290;28;20057;-84
2022/03/23 14:28:21;;;;;;;12.57;3.63;;;;;;;;;;4998359;28;20430;-93
2022/03/23 14:31:18;;;;;;;9.00;3.47;;;;;;;;;;5022728;28;20034;-94
2022/03/23 14:34:12;;;;;;;;;;;;;;;;;;;;;
2022/03/23 14:36:56;;;;;;;9.52;3.95;;;;;;;;;;5023751;28;20430;-96
2022/03/23 14:39:26;;;;;;;7.85;3.78;;;;;;;;;;5022956;28;20052;-96
2022/03/23 14:42:01;;;;;;;6.15;3.63;;;;;;;;;;5007935;28;20026;-95
2022/03/23 14:44:55;;;;;;;7.55;3.25;;;;;;;;;;5060262;22;20137;-94
2022/03/23 14:47:41;;;;;;;6.97;3.00;;;;;;;;;;4982182;28;20467;-93
2022/03/23 14:50:19;;;;;;;8.45;3.22;;;;;;;;;;4979447;28;20035;-95
2022/03/23 14:52:51;;;;;;;8.52;3.60;;;;;;;;;;4981491;28;20479;-92
2022/03/23 14:55:18;;;;;;;9.43;4.10;;;;;;;;;;4980593;28;20062;-91
2022/03/23 14:57:53;;;;;;;7.38;3.72;;;;;;;;;;4981360;28;20058;-93
2022/03/23 15:03:37;;;;;;;6.47;2.95;;;;;;;;;;4996360;28;20100;-94
2022/03/23 15:14:20;;;;;;;18.88;3.83;;;;;;;;;;4999709;28;20060;-92
2022/03/23 15:16:46;;;;;;;9.70;3.20;;;;;;;;;;4982167;28;20455;-91
2022/03/23 15:19:12;;;;;;;12.10;3.38;;;;;;;;;;4983813;28;20030;-92
2022/03/23 15:21:39;;;;;;;17.40;3.75;;;;;;;;;;4981527;28;20022;-91
2022/03/23 15:24:06;;;;;;;6.68;3.35;;;;;;;;;;4982118;28;20038;-89
2022/03/23 15:26:35;;;;;;;7.82;3.55;;;;;;;;;;4983823;28;20062;-93
2022/03/23 15:29:07;;;;;;;6.85;3.50;;;;;;;;;;4994742;28;20046;-91
2022/03/23 15:31:40;;;;;;;6.63;3.13;;;;;;;;;;5000104;28;20021;-90
2022/03/23 15:34:36;;;;;;;6.97;3.40;;;;;;;;;;4995512;28;20046;-95
2022/03/23 15:37:08;;;;;;;6.40;2.85;;;;;;;;;;4977223;28;20013;-90
2022/03/23 15:39:38;;;;;;;6.65;2.72;;;;;;;;;;4984372;28;20035;-90
2022/03/23 15:45:25;;;;;;;6.37;3.33;;;;;;;;;;4982095;28;20561;-90
2022/03/23 15:47:58;;;;;;;8.75;3.03;;;;;;;;;;4991090;28;20026;-89
2022/03/23 15:50:39;;;;;;;5.82;2.88;;;;;;;;;;4984861;28;20031;-91
2022/03/23 15:53:11;;;;;;;7.13;2.40;;;;;;;;;;4999366;28;20479;-90
2022/03/23 15:55:43;;;;;;;8.30;3.07;;;;;;;;;;4987940;28;20467;-92
2022/03/23 15:58:10;;;;;;;8.90;3.38;;;;;;;;;;4981348;28;20284;-92
2022/03/23 16:00:48;;;;;;;7.43;3.00;;;;;;;;;;4983541;28;20037;-92
2022/03/23 16:03:15;;;;;;;6.47;2.92;;;;;;;;;;4982103;28;20037;-88
2022/03/23 16:05:47;;;;;;;9.85;2.97;;;;;;;;;;4988021;28;20022;-93
2022/03/23 16:08:20;;;;;;;9.67;3.53;;;;;;;;;;4987622;28;20026;-94
2022/03/23 16:10:50;;;;;;;7.47;3.53;;;;;;;;;;4982483;28;20037;-91
2022/03/23 16:13:27;;;;;;;7.63;3.20;;;;;;;;;;4982251;28;20030;-93
2022/03/23 16:15:53;;;;;;;9.88;4.15;;;;;;;;;;4970846;28;20049;-90
2022/03/23 16:18:24;;;;;;;7.47;3.78;;;;;;;;;;4983069;28;20116;-95
2022/03/23 16:23:38;;;;;;;7.93;3.47;;;;;;;;;;4999046;28;20041;-91
2022/03/23 16:26:11;;;;;;;8.43;3.53;;;;;;;;;;5000389;28;20022;-90
2022/03/23 16:28:40;;;;;;;7.57;3.95;;;;;;;;;;4981843;28;20030;-90
2022/03/23 16:31:07;;;;;;;16.67;4.13;;;;;;;;;;4981420;28;20022;-92
2022/03/23 16:33:34;;;;;;;12.23;4.53;;;;;;;;;;4981132;28;20035;-92
2022/03/23 16:36:03;;;;;;;11.10;3.92;;;;;;;;;;4983272;28;20030;-92
2022/03/23 16:38:29;;;;;;;14.25;3.75;;;;;;;;;;4984309;28;20085;-91
2022/03/23 16:41:33;;;;;;;30.17;3.85;;;;;;;;;;4981454;28;20023;-89
2022/03/23 16:43:42;;;;;;;21.42;4.57;;;;;;;;;;4997305;28;20027;-92
2022/03/23 16:46:09;;;;;;;8.40;4.18;;;;;;;;;;4963072;28;20051;-90
2022/03/23 16:48:35;;;;;;;8.73;3.38;;;;;;;;;;4966500;28;20030;-91
2022/03/23 16:51:16;;;;;;;9.80;3.85;;;;;;;;;;4971044;28;20061;-89
2022/03/23 16:53:42;;;;;;;6.47;3.42;;;;;;;;;;5008910;22;20153;-88
2022/03/23 16:56:09;;;;;;;8.20;3.95;;;;;;;;;;4997691;28;20026;-90
2022/03/23 16:58:36;;;;;;;15.07;4.10;;;;;;;;;;5002323;28;20026;-89